createdAt,value
2023-05-23T00:00:38.408Z,15.67
2023-05-23T00:03:28.875Z,15.65
2023-05-23T00:06:14.809Z,15.67
2023-05-23T00:09:00.046Z,15.65
2023-05-23T00:11:45.947Z,15.63
2023-05-23T00:14:33.960Z,15.61
2023-05-23T00:17:20.864Z,15.60
2023-05-23T00:20:11.921Z,15.61
2023-05-23T00:22:58.674Z,15.61
2023-05-23T00:25:48.486Z,15.63
2023-05-23T00:28:33.770Z,15.62
2023-05-23T00:31:19.115Z,15.59
2023-05-23T00:34:04.225Z,15.57
2023-05-23T00:36:50.255Z,15.55
2023-05-23T00:39:35.866Z,15.50
2023-05-23T00:42:21.197Z,15.49
2023-05-23T00:45:07.741Z,15.48
2023-05-23T00:47:54.435Z,15.45
2023-05-23T00:50:41.268Z,15.43
2023-05-23T00:53:27.174Z,15.43
2023-05-23T00:56:13.786Z,15.42
2023-05-23T00:59:00.962Z,15.40
2023-05-23T01:01:47.403Z,15.34
2023-05-23T01:04:34.274Z,15.33
2023-05-23T01:07:22.794Z,15.32
2023-05-23T01:10:11.110Z,15.28
2023-05-23T01:13:01.619Z,15.26
2023-05-23T01:16:01.921Z,15.22
2023-05-23T01:19:17.956Z,15.17
2023-05-23T01:22:22.813Z,15.12
2023-05-23T01:25:28.030Z,15.06
2023-05-23T01:28:20.413Z,15.03
2023-05-23T01:31:11.026Z,14.96
2023-05-23T01:33:56.810Z,14.95
2023-05-23T01:36:44.479Z,14.91
2023-05-23T01:39:29.863Z,14.85
2023-05-23T01:42:15.827Z,14.81
2023-05-23T01:45:01.400Z,14.80
2023-05-23T01:47:51.079Z,14.77
2023-05-23T01:50:36.651Z,14.72
2023-05-23T01:53:24.429Z,14.69
2023-05-23T01:56:10.938Z,14.69
2023-05-23T01:58:56.718Z,14.66
2023-05-23T02:01:42.247Z,14.66
2023-05-23T02:04:28.878Z,14.60
2023-05-23T02:07:14.353Z,14.56
2023-05-23T02:09:59.670Z,14.52
2023-05-23T02:12:45.054Z,14.46
2023-05-23T02:15:30.930Z,14.38
2023-05-23T02:18:18.105Z,14.34
2023-05-23T02:21:05.273Z,14.28
2023-05-23T02:23:50.968Z,14.24
2023-05-23T02:26:37.045Z,14.24
2023-05-23T02:29:22.274Z,14.21
2023-05-23T02:32:07.882Z,14.20
2023-05-23T02:34:54.552Z,14.19
2023-05-23T02:37:41.728Z,14.19
2023-05-23T02:40:27.096Z,14.20
2023-05-23T02:43:13.812Z,14.19
2023-05-23T02:45:59.007Z,14.20
2023-05-23T02:48:45.345Z,14.20
2023-05-23T02:51:32.170Z,14.23
2023-05-23T02:54:17.607Z,14.25
2023-05-23T02:57:02.924Z,14.26
2023-05-23T02:59:51.933Z,14.25
2023-05-23T03:02:37.759Z,14.27
2023-05-23T03:05:23.073Z,14.28
2023-05-23T03:08:08.520Z,14.24
2023-05-23T03:10:54.218Z,14.23
2023-05-23T03:13:39.604Z,14.20
2023-05-23T03:16:24.945Z,14.18
2023-05-23T03:19:10.400Z,14.13
2023-05-23T03:21:55.656Z,14.19
2023-05-23T03:24:40.827Z,14.18
2023-05-23T03:27:25.963Z,14.18
2023-05-23T03:30:12.052Z,14.18
2023-05-23T03:32:57.531Z,14.16
2023-05-23T03:35:42.936Z,14.19
2023-05-23T03:38:29.132Z,14.18
2023-05-23T03:41:14.556Z,14.20
2023-05-23T03:44:00.899Z,14.19
2023-05-23T03:46:46.183Z,14.16
2023-05-23T03:49:31.516Z,14.10
2023-05-23T03:52:17.111Z,14.08
2023-05-23T03:55:03.379Z,14.08
2023-05-23T03:57:49.974Z,14.06
2023-05-23T04:00:36.288Z,14.03
2023-05-23T04:03:26.444Z,14.04
2023-05-23T04:06:13.663Z,14.04
2023-05-23T04:09:02.603Z,14.09
2023-05-23T04:11:50.084Z,14.11
2023-05-23T04:14:37.475Z,14.10
2023-05-23T04:17:22.909Z,14.13
2023-05-23T04:20:10.233Z,14.14
2023-05-23T04:22:55.750Z,14.16
2023-05-23T04:25:43.432Z,14.18
2023-05-23T04:28:40.123Z,14.17
2023-05-23T04:31:26.253Z,14.21
2023-05-23T04:34:11.623Z,14.24
2023-05-23T04:36:58.826Z,14.27
2023-05-23T04:39:44.265Z,14.31
2023-05-23T04:42:53.948Z,14.34
2023-05-23T04:46:02.279Z,14.39
2023-05-23T04:49:01.559Z,14.41
2023-05-23T04:51:47.073Z,14.48
2023-05-23T04:54:37.710Z,14.50
2023-05-23T04:57:24.212Z,14.56
2023-05-23T05:00:10.603Z,14.56
2023-05-23T05:02:56.926Z,14.56
2023-05-23T05:08:33.283Z,14.62
2023-05-23T05:11:18.524Z,14.64
2023-05-23T05:14:03.832Z,14.65
2023-05-23T05:16:50.237Z,14.64
2023-05-23T05:19:36.533Z,14.62
2023-05-23T05:22:21.841Z,14.55
2023-05-23T05:25:09.079Z,14.51
2023-05-23T05:27:54.433Z,14.47
2023-05-23T05:30:41.109Z,14.38
2023-05-23T05:33:28.519Z,14.29
2023-05-23T05:36:23.197Z,14.25
2023-05-23T05:39:09.431Z,14.24
2023-05-23T05:41:56.277Z,14.19
2023-05-23T05:44:42.397Z,14.19
2023-05-23T05:47:27.720Z,14.18
2023-05-23T05:50:14.006Z,14.18
2023-05-23T05:52:59.392Z,14.20
2023-05-23T05:55:44.875Z,14.20
2023-05-23T05:58:30.038Z,14.19
2023-05-23T06:01:20.911Z,14.14
2023-05-23T06:04:06.497Z,14.09
2023-05-23T06:06:52.572Z,14.03
2023-05-23T06:09:37.702Z,14.02
2023-05-23T06:12:23.640Z,14.02
2023-05-23T06:15:09.706Z,14.00
2023-05-23T06:17:57.010Z,13.97
2023-05-23T06:20:43.542Z,13.95
2023-05-23T06:23:33.781Z,13.88
2023-05-23T06:26:19.012Z,13.81
2023-05-23T06:29:04.488Z,13.72
2023-05-23T06:31:49.796Z,13.65
2023-05-23T06:34:35.098Z,13.58
2023-05-23T06:37:20.378Z,13.58
2023-05-23T06:40:06.224Z,13.52
2023-05-23T06:42:51.688Z,13.46
2023-05-23T06:45:47.801Z,13.45
2023-05-23T06:48:33.313Z,13.53
2023-05-23T06:51:18.490Z,13.58
2023-05-23T06:54:04.239Z,13.64
2023-05-23T06:56:49.797Z,13.68
2023-05-23T06:59:35.077Z,13.72
2023-05-23T07:02:21.569Z,13.75
2023-05-23T07:05:07.158Z,13.77
2023-05-23T07:08:07.351Z,13.78
2023-05-23T07:10:52.772Z,13.79
2023-05-23T07:13:59.585Z,13.80
2023-05-23T07:16:55.161Z,13.75
2023-05-23T07:19:40.435Z,13.80
2023-05-23T07:22:25.693Z,13.86
2023-05-23T07:25:11.169Z,13.93
2023-05-23T07:27:56.600Z,14.01
2023-05-23T07:30:42.885Z,14.00
2023-05-23T07:33:28.987Z,13.97
2023-05-23T07:36:19.605Z,13.95
2023-05-23T07:39:04.941Z,13.91
2023-05-23T07:41:50.492Z,14.01
2023-05-23T07:44:38.199Z,14.12
2023-05-23T07:47:24.452Z,14.24
2023-05-23T07:50:10.477Z,14.37
2023-05-23T07:52:56.803Z,14.55
2023-05-23T07:55:47.118Z,14.69
2023-05-23T07:58:33.394Z,14.81
2023-05-23T08:01:19.158Z,14.94
2023-05-23T08:04:36.701Z,15.16
2023-05-23T08:07:23.377Z,15.36
2023-05-23T08:10:13.054Z,15.90
2023-05-23T08:13:00.959Z,16.39
2023-05-23T08:15:51.103Z,16.58
2023-05-23T08:18:42.213Z,16.59
2023-05-23T08:21:27.278Z,16.67
2023-05-23T08:24:15.064Z,16.72
2023-05-23T08:27:01.613Z,16.76
2023-05-23T08:29:46.980Z,16.84
2023-05-23T08:32:33.280Z,16.96
2023-05-23T08:35:20.027Z,17.05
2023-05-23T08:38:07.858Z,17.20
2023-05-23T08:40:56.710Z,17.31
2023-05-23T08:43:44.779Z,17.29
2023-05-23T08:46:46.218Z,17.26
2023-05-23T08:49:39.408Z,17.21
2023-05-23T08:52:27.745Z,17.20
2023-05-23T08:55:16.288Z,17.14
2023-05-23T08:58:03.528Z,17.06
2023-05-23T09:01:00.188Z,17.05
2023-05-23T09:03:46.080Z,17.15
2023-05-23T09:06:47.634Z,17.13
2023-05-23T09:09:34.236Z,17.29
2023-05-23T09:12:24.657Z,17.47
2023-05-23T09:15:11.630Z,17.46
2023-05-23T09:18:04.210Z,17.46
2023-05-23T09:20:51.258Z,17.43
2023-05-23T09:23:40.228Z,17.38
2023-05-23T09:26:28.012Z,17.33
2023-05-23T09:29:14.811Z,17.60
2023-05-23T09:32:17.574Z,18.04
2023-05-23T09:35:06.343Z,18.27
2023-05-23T09:37:56.132Z,18.19
2023-05-23T09:40:45.788Z,17.89
2023-05-23T09:43:31.396Z,17.57
2023-05-23T09:46:17.199Z,17.33
2023-05-23T09:49:02.529Z,17.18
2023-05-23T09:51:58.648Z,17.29
2023-05-23T09:54:44.395Z,17.43
2023-05-23T09:57:32.139Z,17.94
2023-05-23T10:00:18.784Z,18.05
2023-05-23T10:03:15.482Z,18.04
2023-05-23T10:06:22.871Z,17.85
2023-05-23T10:09:17.440Z,17.89
2023-05-23T10:12:32.552Z,18.08
2023-05-23T10:15:20.055Z,18.18
2023-05-23T10:18:38.351Z,18.13
2023-05-23T10:21:33.295Z,17.92
2023-05-23T10:24:19.717Z,17.93
2023-05-23T10:27:06.425Z,18.10
2023-05-23T10:29:52.267Z,18.14
2023-05-23T10:32:40.242Z,18.08
2023-05-23T10:35:42.539Z,18.18
2023-05-23T10:38:40.801Z,18.34
2023-05-23T10:41:43.873Z,18.49
2023-05-23T10:44:31.259Z,18.63
2023-05-23T10:47:29.193Z,18.77
2023-05-23T10:50:32.909Z,18.86
2023-05-23T10:53:18.331Z,18.89
2023-05-23T10:56:09.244Z,18.82
2023-05-23T10:58:56.692Z,18.95
2023-05-23T11:01:42.888Z,18.87
2023-05-23T11:04:29.532Z,18.94
2023-05-23T11:07:32.620Z,19.11
2023-05-23T11:10:19.331Z,19.29
2023-05-23T11:13:08.110Z,19.26
2023-05-23T11:15:53.688Z,19.27
2023-05-23T11:18:39.240Z,19.15
2023-05-23T11:21:24.872Z,19.05
2023-05-23T11:24:10.589Z,19.27
2023-05-23T11:27:01.890Z,19.18
2023-05-23T11:29:59.003Z,19.17
2023-05-23T11:32:55.854Z,19.39
2023-05-23T11:35:49.575Z,19.24
2023-05-23T11:38:34.951Z,19.45
2023-05-23T11:41:20.530Z,19.68
2023-05-23T11:44:13.433Z,19.98
2023-05-23T11:47:07.711Z,20.36
2023-05-23T11:49:53.623Z,20.84
2023-05-23T11:52:39.228Z,20.55
2023-05-23T11:55:24.840Z,20.33
2023-05-23T11:58:10.975Z,20.43
2023-05-23T12:01:10.027Z,20.78
2023-05-23T12:03:56.206Z,20.94
2023-05-23T12:06:41.955Z,21.08
2023-05-23T12:09:27.293Z,21.28
2023-05-23T12:12:13.892Z,21.13
2023-05-23T12:14:59.460Z,21.28
2023-05-23T12:17:46.466Z,21.13
2023-05-23T12:20:35.038Z,20.93
2023-05-23T12:23:26.950Z,21.12
2023-05-23T12:26:12.411Z,21.05
2023-05-23T12:29:00.040Z,21.07
2023-05-23T12:31:48.587Z,20.74
2023-05-23T12:34:34.140Z,20.59
2023-05-23T12:37:20.737Z,20.60
2023-05-23T12:40:14.676Z,20.54
2023-05-23T12:43:00.673Z,20.59
2023-05-23T12:45:46.112Z,20.45
2023-05-23T12:48:31.275Z,20.33
2023-05-23T12:51:17.278Z,20.29
2023-05-23T12:54:02.867Z,20.19
2023-05-23T12:56:48.331Z,20.30
2023-05-23T12:59:33.548Z,20.31
2023-05-23T13:02:18.865Z,20.24
2023-05-23T13:05:04.410Z,20.06
2023-05-23T13:07:50.613Z,19.86
2023-05-23T13:10:35.993Z,20.10
2023-05-23T13:13:24.006Z,20.23
2023-05-23T13:16:09.656Z,20.47
2023-05-23T13:18:54.989Z,20.59
2023-05-23T13:21:40.290Z,20.41
2023-05-23T13:24:25.694Z,20.28
2023-05-23T13:27:10.955Z,20.00
2023-05-23T13:29:56.375Z,19.80
2023-05-23T13:32:42.054Z,19.84
2023-05-23T13:35:28.086Z,19.62
2023-05-23T13:38:13.656Z,19.49
2023-05-23T13:40:58.793Z,19.22
2023-05-23T13:43:44.203Z,18.96
2023-05-23T13:46:29.485Z,18.81
2023-05-23T13:49:14.793Z,19.12
2023-05-23T13:52:00.123Z,19.23
2023-05-23T13:54:46.338Z,19.24
2023-05-23T13:57:31.729Z,19.20
2023-05-23T14:00:17.477Z,19.04
2023-05-23T14:03:03.596Z,18.82
2023-05-23T14:05:49.063Z,18.62
2023-05-23T14:08:34.681Z,18.45
2023-05-23T14:11:20.475Z,18.35
2023-05-23T14:14:06.167Z,18.41
2023-05-23T14:16:51.969Z,18.33
2023-05-23T14:19:37.836Z,18.41
2023-05-23T14:22:23.002Z,18.57
2023-05-23T14:25:08.914Z,19.08
2023-05-23T14:27:54.553Z,19.48
2023-05-23T14:30:39.776Z,19.75
2023-05-23T14:33:27.975Z,19.95
2023-05-23T14:36:16.026Z,20.09
2023-05-23T14:39:01.472Z,19.99
2023-05-23T14:41:50.050Z,19.90
2023-05-23T14:44:35.750Z,19.53
2023-05-23T14:47:21.684Z,18.96
2023-05-23T14:50:08.078Z,18.89
2023-05-23T14:52:54.336Z,18.89
2023-05-23T14:55:39.968Z,18.91
2023-05-23T14:58:25.802Z,18.83
2023-05-23T15:01:14.283Z,18.69
2023-05-23T15:03:59.685Z,19.05
2023-05-23T15:06:47.180Z,19.30
2023-05-23T15:09:32.407Z,19.42
2023-05-23T15:12:17.694Z,19.58
2023-05-23T15:15:04.052Z,19.35
2023-05-23T15:17:51.265Z,19.13
2023-05-23T15:20:37.726Z,19.18
2023-05-23T15:23:23.026Z,19.42
2023-05-23T15:26:08.429Z,19.25
2023-05-23T15:28:53.842Z,18.85
2023-05-23T15:31:39.150Z,18.60
2023-05-23T15:34:24.442Z,18.36
2023-05-23T15:37:10.858Z,18.31
2023-05-23T15:39:56.274Z,18.65
2023-05-23T15:42:41.703Z,18.70
2023-05-23T15:45:27.035Z,18.57
2023-05-23T15:48:12.581Z,18.66
2023-05-23T15:51:00.428Z,18.94
2023-05-23T15:54:00.089Z,19.20
2023-05-23T15:56:46.741Z,19.55
2023-05-23T15:59:31.903Z,19.88
2023-05-23T16:02:18.992Z,20.25
2023-05-23T16:05:04.675Z,20.13
2023-05-23T16:07:50.469Z,19.78
2023-05-23T16:10:36.144Z,19.30
2023-05-23T16:13:21.374Z,18.82
2023-05-23T16:16:06.839Z,18.42
2023-05-23T16:18:52.383Z,18.29
2023-05-23T16:21:37.646Z,18.61
2023-05-23T16:24:23.113Z,19.10
2023-05-23T16:27:08.317Z,19.46
2023-05-23T16:29:53.479Z,19.82
2023-05-23T16:32:38.877Z,19.52
2023-05-23T16:35:24.156Z,19.70
2023-05-23T16:38:09.605Z,20.04
2023-05-23T16:40:55.594Z,20.37
2023-05-23T16:43:41.735Z,20.38
2023-05-23T16:46:27.514Z,19.89
2023-05-23T16:49:12.669Z,19.73
2023-05-23T16:51:58.287Z,19.97
2023-05-23T16:54:44.449Z,20.27
2023-05-23T16:57:29.735Z,20.69
2023-05-23T17:00:15.873Z,20.87
2023-05-23T17:03:01.593Z,20.89
2023-05-23T17:05:47.111Z,20.64
2023-05-23T17:08:32.504Z,20.10
2023-05-23T17:11:17.963Z,19.70
2023-05-23T17:14:03.982Z,19.23
2023-05-23T17:16:49.290Z,18.67
2023-05-23T17:19:36.097Z,18.63
2023-05-23T17:22:21.595Z,18.72
2023-05-23T17:25:07.453Z,19.06
2023-05-23T17:27:52.624Z,19.29
2023-05-23T17:30:38.418Z,19.50
2023-05-23T17:33:23.841Z,19.67
2023-05-23T17:36:09.354Z,19.68
2023-05-23T17:38:54.560Z,19.73
2023-05-23T17:41:39.974Z,19.62
2023-05-23T17:44:25.053Z,19.59
2023-05-23T17:47:10.728Z,19.71
2023-05-23T17:49:57.870Z,19.77
2023-05-23T17:52:43.310Z,19.88
2023-05-23T17:55:28.794Z,19.63
2023-05-23T17:58:14.184Z,19.47
2023-05-23T18:00:59.439Z,19.34
2023-05-23T18:03:44.903Z,19.19
2023-05-23T18:06:30.103Z,19.01
2023-05-23T18:09:15.478Z,18.95
2023-05-23T18:12:00.599Z,18.81
2023-05-23T18:14:45.975Z,18.73
2023-05-23T18:17:31.744Z,18.50
2023-05-23T18:20:17.403Z,18.23
2023-05-23T18:23:02.962Z,18.05
2023-05-23T18:25:48.572Z,17.95
2023-05-23T18:28:33.949Z,17.77
2023-05-23T18:31:19.183Z,17.61
2023-05-23T18:34:05.986Z,17.41
2023-05-23T18:36:51.488Z,17.21
2023-05-23T18:39:36.834Z,17.02
2023-05-23T18:42:22.317Z,16.80
2023-05-23T18:45:09.402Z,16.44
2023-05-23T18:47:55.017Z,16.14
2023-05-23T18:50:40.941Z,15.84
2023-05-23T18:53:26.559Z,15.63
2023-05-23T18:56:12.199Z,15.39
2023-05-23T18:58:58.517Z,15.08
2023-05-23T19:01:43.890Z,14.79
2023-05-23T19:04:29.513Z,14.51
2023-05-23T19:07:15.114Z,14.25
2023-05-23T19:10:00.554Z,14.03
2023-05-23T19:12:46.106Z,13.82
2023-05-23T19:15:31.256Z,13.64
2023-05-23T19:18:17.648Z,13.46
2023-05-23T19:21:03.443Z,13.28
2023-05-23T19:23:48.827Z,13.14
2023-05-23T19:26:35.211Z,13.02
2023-05-23T19:29:20.538Z,12.91
2023-05-23T19:32:06.322Z,12.77
2023-05-23T19:34:52.462Z,12.66
2023-05-23T19:37:37.695Z,12.57
2023-05-23T19:40:24.392Z,12.47
2023-05-23T19:43:09.897Z,12.40
2023-05-23T19:45:55.324Z,12.34
2023-05-23T19:48:40.525Z,12.24
2023-05-23T19:51:26.604Z,12.19
2023-05-23T19:54:13.623Z,12.09
2023-05-23T19:56:59.064Z,12.01
2023-05-23T19:59:44.478Z,11.94
2023-05-23T20:02:29.781Z,11.85
2023-05-23T20:05:15.112Z,11.79
2023-05-23T20:08:01.490Z,11.73
2023-05-23T20:10:46.865Z,11.68
2023-05-23T20:13:32.147Z,11.65
2023-05-23T20:16:17.510Z,11.60
2023-05-23T20:19:02.897Z,11.57
2023-05-23T20:21:48.344Z,11.53
2023-05-23T20:24:33.714Z,11.47
2023-05-23T20:27:19.251Z,11.42
2023-05-23T20:30:04.924Z,11.40
2023-05-23T20:32:53.649Z,11.34
2023-05-23T20:35:41.341Z,11.28
2023-05-23T20:38:26.805Z,11.23
2023-05-23T20:41:14.073Z,11.18
2023-05-23T20:44:02.618Z,11.13
2023-05-23T20:46:48.304Z,11.08
2023-05-23T20:49:34.925Z,11.04
2023-05-23T20:52:21.052Z,10.99
2023-05-23T20:55:07.762Z,10.92
2023-05-23T20:57:52.908Z,10.82
2023-05-23T21:00:38.257Z,10.74
2023-05-23T21:03:23.401Z,10.67
2023-05-23T21:06:08.885Z,10.63
2023-05-23T21:08:54.342Z,10.57
2023-05-23T21:11:39.670Z,10.49
2023-05-23T21:14:25.266Z,10.46
2023-05-23T21:17:10.897Z,10.42
2023-05-23T21:19:56.210Z,10.40
2023-05-23T21:22:41.527Z,10.35
2023-05-23T21:25:27.293Z,10.28
2023-05-23T21:28:12.626Z,10.21
2023-05-23T21:30:58.352Z,10.15
2023-05-23T21:33:43.514Z,10.10
2023-05-23T21:36:28.758Z,10.06
2023-05-23T21:39:14.032Z,9.98
2023-05-23T21:41:59.415Z,9.91
2023-05-23T21:44:44.851Z,9.84
2023-05-23T21:47:30.435Z,9.82
2023-05-23T21:50:16.010Z,9.78
2023-05-23T21:53:01.947Z,9.74
2023-05-23T21:55:47.641Z,9.71
2023-05-23T21:58:33.009Z,9.70
2023-05-23T22:01:18.299Z,9.68
2023-05-23T22:04:03.537Z,9.62
2023-05-23T22:06:48.789Z,9.58
2023-05-23T22:09:34.050Z,9.58
2023-05-23T22:12:20.135Z,9.55
2023-05-23T22:15:07.317Z,9.52
2023-05-23T22:17:53.133Z,9.48
2023-05-23T22:20:38.849Z,9.44
2023-05-23T22:23:24.165Z,9.42
2023-05-23T22:26:09.405Z,9.40
2023-05-23T22:28:55.729Z,9.35
2023-05-23T22:31:41.365Z,9.30
2023-05-23T22:34:26.474Z,9.25
2023-05-23T22:37:11.984Z,9.19
2023-05-23T22:39:57.128Z,9.11
2023-05-23T22:42:42.519Z,9.05
2023-05-23T22:45:28.618Z,8.99
2023-05-23T22:48:16.943Z,8.96
2023-05-23T22:51:03.627Z,8.91
2023-05-23T22:53:49.198Z,8.86
2023-05-23T22:56:34.872Z,8.79
2023-05-23T22:59:20.235Z,8.73
2023-05-23T23:02:06.472Z,8.69
2023-05-23T23:04:51.800Z,8.64
2023-05-23T23:07:37.134Z,8.59
2023-05-23T23:10:22.594Z,8.53
2023-05-23T23:13:08.091Z,8.48
2023-05-23T23:15:53.235Z,8.43
2023-05-23T23:18:38.690Z,8.37
2023-05-23T23:21:23.824Z,8.28
2023-05-23T23:24:11.001Z,8.22
2023-05-23T23:26:56.696Z,8.16
2023-05-23T23:29:42.144Z,8.10
2023-05-23T23:32:27.793Z,8.07
2023-05-23T23:35:12.895Z,8.04
2023-05-23T23:37:58.219Z,7.98
2023-05-23T23:40:45.482Z,7.96
2023-05-23T23:43:31.358Z,7.94
2023-05-23T23:46:18.757Z,7.91
2023-05-23T23:49:04.275Z,7.87
2023-05-23T23:51:49.869Z,7.84
2023-05-23T23:54:35.608Z,7.83
2023-05-23T23:57:21.063Z,7.82
